This demonstration page uses our WeatherBlox Daily Observations layout. Learn more.

39.29038, -76.61219

Hourly Observations for November 30, 2019

Temp ( °F °C ) Dew Point ( °F °C ) Humidity (%) Winds ( mph kmh ) Pressure ( in mb ) Visibility ( mi km ) Precip ( " mm )
12:54 am 00:54 undefined 41 5 24 -4.4 51 51 undefined N/A 30.13 1020 N/A 0 0
1:54 am 01:54 undefined 40 4.4 23 -5 51 51 undefined N/A 30.11 1020 N/A 0 0
2:54 am 02:54 undefined 40 4.4 24 -4.4 53 53 undefined N/A 30.1 1019 N/A 0 0
3:54 am 03:54 undefined 40 4.4 23 -5 51 51 undefined N/A 30.1 1019 N/A 0 0
4:54 am 04:54 undefined 39 3.9 24 -4.4 55 55 undefined N/A 30.1 1019 N/A 0 0
5:54 am 05:54 undefined 39 3.9 24 -4.4 55 55 undefined N/A 30.09 1019 N/A 0 0
6:54 am 06:54 undefined 38 3.3 24 -4.4 57 57 undefined N/A 30.08 1019 N/A 0 0
7:54 am 07:54 undefined 38 3.3 23 -5 55 55 undefined N/A 30.1 1019 N/A 0 0
8:54 am 08:54 undefined 39 3.9 24 -4.4 55 55 undefined N/A 30.13 1020 N/A 0 0
9:54 am 09:54 undefined 40 4.4 24 -4.4 53 53 undefined N/A 30.14 1021 N/A 0 0
10:54 am 10:54 undefined 41 5 23 -5 49 49 undefined N/A 30.11 1020 N/A 0 0
1:54 pm 13:54 undefined 45 7.2 22 -5.6 40 40 undefined N/A 30.02 1017 N/A 0 0
2:54 pm 14:54 undefined 44 6.7 21 -6.1 40 40 undefined N/A 30.03 1017 N/A 0 0
3:54 pm 15:54 undefined 44 6.7 22 -5.6 41 41 undefined N/A 30.02 1017 N/A 0 0
4:54 pm 16:54 undefined 43 6.1 24 -4.4 47 47 undefined N/A 30.01 1016 N/A 0 0
5:54 pm 17:54 undefined 43 6.1 24 -4.4 47 47 undefined N/A 30.02 1017 N/A 0 0
6:54 pm 18:54 undefined 43 6.1 22 -5.6 43 43 undefined N/A 30.03 1017 N/A 0 0
7:54 pm 19:54 undefined 43 6.1 20 -6.7 40 40 undefined N/A 30.02 1017 N/A 0 0
8:54 pm 20:54 undefined 43 6.1 23 -5 45 45 undefined N/A 30.01 1016 N/A 0 0
9:54 pm 21:54 undefined 43 6.1 24 -4.4 47 47 undefined N/A 29.99 1016 N/A 0 0
10:54 pm 22:54 undefined 42 5.6 26 -3.3 53 53 undefined N/A 29.98 1015 N/A 0 0
11:54 pm 23:54 undefined 42 5.6 27 -2.8 55 55 undefined N/A 29.98 1015 N/A 0 0

Powered by AerisWeather